sensor_id;sensor_type;location;lat;lon;timestamp;P1;durP1;ratioP1;P2;durP2;ratioP2
51298;SDS011;37382;45.192;9.790;2022-11-15T05:06:17;71.95;;;37.25;;
51298;SDS011;37382;45.192;9.790;2022-11-15T05:09:03;71.43;;;39.03;;
51298;SDS011;37382;45.192;9.790;2022-11-15T05:11:49;74.50;;;38.90;;
51298;SDS011;37382;45.192;9.790;2022-11-15T05:14:36;75.40;;;37.65;;
51298;SDS011;37382;45.192;9.790;2022-11-15T05:17:22;74.78;;;39.95;;
51298;SDS011;37382;45.192;9.790;2022-11-15T05:20:08;78.43;;;38.45;;
51298;SDS011;37382;45.192;9.790;2022-11-15T05:22:55;74.15;;;37.42;;
51298;SDS011;37382;45.192;9.790;2022-11-15T05:25:41;72.82;;;39.33;;
51298;SDS011;37382;45.192;9.790;2022-11-15T05:28:27;72.45;;;38.17;;
51298;SDS011;37382;45.192;9.790;2022-11-15T05:31:14;73.13;;;38.83;;
51298;SDS011;37382;45.192;9.790;2022-11-15T05:34:01;71.32;;;36.58;;
51298;SDS011;37382;45.192;9.790;2022-11-15T05:36:50;75.30;;;38.22;;
51298;SDS011;37382;45.192;9.790;2022-11-15T05:39:36;74.03;;;40.50;;
51298;SDS011;37382;45.192;9.790;2022-11-15T05:42:23;76.78;;;39.15;;
51298;SDS011;37382;45.192;9.790;2022-11-15T05:45:12;70.47;;;38.10;;
51298;SDS011;37382;45.192;9.790;2022-11-15T05:47:58;67.55;;;37.38;;
51298;SDS011;37382;45.192;9.790;2022-11-15T05:50:46;71.75;;;37.60;;
51298;SDS011;37382;45.192;9.790;2022-11-15T05:53:33;70.50;;;37.45;;
51298;SDS011;37382;45.192;9.790;2022-11-15T05:56:21;69.78;;;37.15;;
51298;SDS011;37382;45.192;9.790;2022-11-15T05:59:07;72.43;;;37.75;;
51298;SDS011;37382;45.192;9.790;2022-11-15T06:01:54;69.13;;;36.53;;
51298;SDS011;37382;45.192;9.790;2022-11-15T06:04:41;68.90;;;37.15;;
51298;SDS011;37382;45.192;9.790;2022-11-15T06:07:28;66.40;;;35.03;;
51298;SDS011;37382;45.192;9.790;2022-11-15T06:10:16;67.32;;;36.17;;
51298;SDS011;37382;45.192;9.790;2022-11-15T06:13:03;71.38;;;37.22;;
51298;SDS011;37382;45.192;9.790;2022-11-15T06:15:50;69.88;;;37.80;;
51298;SDS011;37382;45.192;9.790;2022-11-15T06:18:36;67.63;;;38.05;;
51298;SDS011;37382;45.192;9.790;2022-11-15T06:21:22;67.97;;;36.55;;
51298;SDS011;37382;45.192;9.790;2022-11-15T06:24:08;73.78;;;38.42;;
51298;SDS011;37382;45.192;9.790;2022-11-15T06:26:55;73.38;;;38.45;;
51298;SDS011;37382;45.192;9.790;2022-11-15T06:29:43;65.35;;;35.92;;
51298;SDS011;37382;45.192;9.790;2022-11-15T06:32:29;72.75;;;38.10;;
51298;SDS011;37382;45.192;9.790;2022-11-15T06:35:16;68.60;;;37.38;;
51298;SDS011;37382;45.192;9.790;2022-11-15T06:38:06;71.75;;;38.05;;
51298;SDS011;37382;45.192;9.790;2022-11-15T06:43:40;67.45;;;36.88;;
51298;SDS011;37382;45.192;9.790;2022-11-15T06:46:27;72.55;;;36.67;;
51298;SDS011;37382;45.192;9.790;2022-11-15T06:49:13;70.53;;;37.80;;
51298;SDS011;37382;45.192;9.790;2022-11-15T06:51:59;72.55;;;38.05;;
51298;SDS011;37382;45.192;9.790;2022-11-15T06:54:45;70.47;;;38.90;;
51298;SDS011;37382;45.192;9.790;2022-11-15T06:57:37;71.50;;;38.83;;
51298;SDS011;37382;45.192;9.790;2022-11-15T07:00:23;65.70;;;36.97;;
51298;SDS011;37382;45.192;9.790;2022-11-15T07:03:09;77.18;;;40.17;;
51298;SDS011;37382;45.192;9.790;2022-11-15T07:05:55;77.85;;;40.25;;
51298;SDS011;37382;45.192;9.790;2022-11-15T07:08:50;73.22;;;39.97;;
51298;SDS011;37382;45.192;9.790;2022-11-15T07:11:35;68.07;;;38.13;;
51298;SDS011;37382;45.192;9.790;2022-11-15T07:14:21;71.03;;;39.25;;
51298;SDS011;37382;45.192;9.790;2022-11-15T07:17:07;83.68;;;41.60;;
51298;SDS011;37382;45.192;9.790;2022-11-15T07:19:53;76.60;;;40.47;;
51298;SDS011;37382;45.192;9.790;2022-11-15T07:22:41;74.72;;;39.53;;
51298;SDS011;37382;45.192;9.790;2022-11-15T07:25:28;76.03;;;41.35;;
51298;SDS011;37382;45.192;9.790;2022-11-15T07:28:14;69.15;;;37.88;;
51298;SDS011;37382;45.192;9.790;2022-11-15T07:31:03;76.03;;;39.88;;
51298;SDS011;37382;45.192;9.790;2022-11-15T07:33:51;74.57;;;39.78;;
51298;SDS011;37382;45.192;9.790;2022-11-15T07:36:37;69.07;;;40.25;;
51298;SDS011;37382;45.192;9.790;2022-11-15T07:39:23;71.95;;;37.95;;
51298;SDS011;37382;45.192;9.790;2022-11-15T07:42:09;74.38;;;39.47;;
51298;SDS011;37382;45.192;9.790;2022-11-15T07:45:14;73.43;;;38.50;;
51298;SDS011;37382;45.192;9.790;2022-11-15T07:48:00;69.00;;;37.50;;
51298;SDS011;37382;45.192;9.790;2022-11-15T07:50:47;77.50;;;40.25;;
51298;SDS011;37382;45.192;9.790;2022-11-15T07:53:32;69.20;;;37.65;;
51298;SDS011;37382;45.192;9.790;2022-11-15T07:56:18;67.45;;;37.80;;
51298;SDS011;37382;45.192;9.790;2022-11-15T07:59:06;76.32;;;39.65;;
51298;SDS011;37382;45.192;9.790;2022-11-15T08:01:52;73.70;;;39.20;;
51298;SDS011;37382;45.192;9.790;2022-11-15T08:04:38;70.18;;;39.25;;
51298;SDS011;37382;45.192;9.790;2022-11-15T08:07:24;76.03;;;39.30;;
51298;SDS011;37382;45.192;9.790;2022-11-15T08:10:11;71.43;;;39.35;;
51298;SDS011;37382;45.192;9.790;2022-11-15T08:13:01;73.68;;;39.28;;
51298;SDS011;37382;45.192;9.790;2022-11-15T08:15:49;78.68;;;41.53;;
51298;SDS011;37382;45.192;9.790;2022-11-15T08:18:42;71.72;;;40.00;;
51298;SDS011;37382;45.192;9.790;2022-11-15T08:21:28;70.47;;;40.42;;
51298;SDS011;37382;45.192;9.790;2022-11-15T08:24:14;69.75;;;40.22;;
51298;SDS011;37382;45.192;9.790;2022-11-15T08:27:02;70.68;;;39.20;;
51298;SDS011;37382;45.192;9.790;2022-11-15T08:29:48;72.47;;;39.28;;
51298;SDS011;37382;45.192;9.790;2022-11-15T08:32:36;77.55;;;40.88;;
51298;SDS011;37382;45.192;9.790;2022-11-15T08:35:22;80.63;;;41.35;;
51298;SDS011;37382;45.192;9.790;2022-11-15T08:38:13;72.07;;;39.85;;
51298;SDS011;37382;45.192;9.790;2022-11-15T08:41:01;72.82;;;40.65;;
51298;SDS011;37382;45.192;9.790;2022-11-15T08:43:49;83.78;;;41.08;;
51298;SDS011;37382;45.192;9.790;2022-11-15T08:46:35;68.68;;;39.60;;
51298;SDS011;37382;45.192;9.790;2022-11-15T08:49:22;71.45;;;39.72;;
51298;SDS011;37382;45.192;9.790;2022-11-15T08:52:08;71.13;;;39.42;;
51298;SDS011;37382;45.192;9.790;2022-11-15T08:54:53;68.70;;;38.88;;
51298;SDS011;37382;45.192;9.790;2022-11-15T08:57:40;76.13;;;40.50;;
51298;SDS011;37382;45.192;9.790;2022-11-15T09:00:26;67.00;;;38.33;;
51298;SDS011;37382;45.192;9.790;2022-11-15T09:03:12;65.47;;;39.05;;
51298;SDS011;37382;45.192;9.790;2022-11-15T09:05:59;67.15;;;37.92;;
51298;SDS011;37382;45.192;9.790;2022-11-15T09:08:46;68.15;;;39.58;;
51298;SDS011;37382;45.192;9.790;2022-11-15T09:11:33;71.93;;;42.00;;
51298;SDS011;37382;45.192;9.790;2022-11-15T09:14:20;71.00;;;41.10;;
51298;SDS011;37382;45.192;9.790;2022-11-15T09:17:07;62.17;;;37.20;;
51298;SDS011;37382;45.192;9.790;2022-11-15T09:19:54;70.20;;;37.92;;
51298;SDS011;37382;45.192;9.790;2022-11-15T09:22:40;69.90;;;38.10;;
51298;SDS011;37382;45.192;9.790;2022-11-15T09:25:26;63.30;;;37.42;;
51298;SDS011;37382;45.192;9.790;2022-11-15T09:28:12;65.07;;;37.65;;
51298;SDS011;37382;45.192;9.790;2022-11-15T09:30:59;64.68;;;37.03;;
51298;SDS011;37382;45.192;9.790;2022-11-15T09:33:46;67.60;;;38.80;;
51298;SDS011;37382;45.192;9.790;2022-11-15T09:36:32;66.63;;;40.17;;
51298;SDS011;37382;45.192;9.790;2022-11-15T09:39:18;70.70;;;39.00;;
51298;SDS011;37382;45.192;9.790;2022-11-15T09:42:25;71.97;;;39.58;;
51298;SDS011;37382;45.192;9.790;2022-11-15T09:45:22;66.63;;;38.85;;
51298;SDS011;37382;45.192;9.790;2022-11-15T09:51:39;70.50;;;39.35;;
51298;SDS011;37382;45.192;9.790;2022-11-15T09:57:18;69.65;;;40.40;;
51298;SDS011;37382;45.192;9.790;2022-11-15T10:03:13;66.13;;;38.22;;
51298;SDS011;37382;45.192;9.790;2022-11-15T10:05:45;63.88;;;37.03;;
51298;SDS011;37382;45.192;9.790;2022-11-15T10:11:20;67.32;;;38.90;;
51298;SDS011;37382;45.192;9.790;2022-11-15T10:14:14;60.53;;;35.50;;
51298;SDS011;37382;45.192;9.790;2022-11-15T10:19:31;61.00;;;36.65;;
51298;SDS011;37382;45.192;9.790;2022-11-15T10:22:24;61.80;;;34.75;;
51298;SDS011;37382;45.192;9.790;2022-11-15T10:25:00;63.90;;;37.13;;
51298;SDS011;37382;45.192;9.790;2022-11-15T10:27:40;61.97;;;36.40;;
51298;SDS011;37382;45.192;9.790;2022-11-15T10:30:14;65.82;;;38.17;;
51298;SDS011;37382;45.192;9.790;2022-11-15T10:32:43;61.08;;;36.53;;
51298;SDS011;37382;45.192;9.790;2022-11-15T10:35:47;65.00;;;37.47;;
51298;SDS011;37382;45.192;9.790;2022-11-15T10:38:09;67.05;;;38.30;;
51298;SDS011;37382;45.192;9.790;2022-11-15T10:40:39;60.75;;;36.55;;
51298;SDS011;37382;45.192;9.790;2022-11-15T10:43:13;62.20;;;38.33;;
51298;SDS011;37382;45.192;9.790;2022-11-15T10:45:43;61.83;;;37.00;;
51298;SDS011;37382;45.192;9.790;2022-11-15T10:50:39;59.97;;;35.67;;
51298;SDS011;37382;45.192;9.790;2022-11-15T10:53:17;60.05;;;35.22;;
51298;SDS011;37382;45.192;9.790;2022-11-15T10:56:11;62.70;;;36.53;;
51298;SDS011;37382;45.192;9.790;2022-11-15T10:58:43;62.50;;;36.33;;
51298;SDS011;37382;45.192;9.790;2022-11-15T11:01:18;60.65;;;36.35;;
51298;SDS011;37382;45.192;9.790;2022-11-15T11:03:59;59.47;;;36.63;;
51298;SDS011;37382;45.192;9.790;2022-11-15T11:06:29;63.15;;;36.45;;
51298;SDS011;37382;45.192;9.790;2022-11-15T11:08:59;65.93;;;37.97;;
51298;SDS011;37382;45.192;9.790;2022-11-15T11:11:43;64.20;;;36.85;;
51298;SDS011;37382;45.192;9.790;2022-11-15T11:14:20;65.05;;;38.20;;
51298;SDS011;37382;45.192;9.790;2022-11-15T11:20:05;65.68;;;36.30;;
51298;SDS011;37382;45.192;9.790;2022-11-15T11:23:00;62.17;;;35.55;;
51298;SDS011;37382;45.192;9.790;2022-11-15T11:25:44;58.22;;;34.47;;
51298;SDS011;37382;45.192;9.790;2022-11-15T11:28:37;54.47;;;32.60;;
51298;SDS011;37382;45.192;9.790;2022-11-15T11:31:29;53.05;;;31.48;;
51298;SDS011;37382;45.192;9.790;2022-11-15T11:34:37;50.55;;;29.38;;
51298;SDS011;37382;45.192;9.790;2022-11-15T11:37:29;52.40;;;28.27;;
51298;SDS011;37382;45.192;9.790;2022-11-15T11:40:10;50.90;;;27.80;;
51298;SDS011;37382;45.192;9.790;2022-11-15T11:42:52;50.92;;;29.67;;
51298;SDS011;37382;45.192;9.790;2022-11-15T11:51:24;58.63;;;28.45;;
51298;SDS011;37382;45.192;9.790;2022-11-15T11:54:00;45.63;;;26.77;;
51298;SDS011;37382;45.192;9.790;2022-11-15T11:56:33;46.28;;;27.30;;
51298;SDS011;37382;45.192;9.790;2022-11-15T12:01:39;48.50;;;28.20;;
51298;SDS011;37382;45.192;9.790;2022-11-15T12:04:14;52.97;;;28.52;;
51298;SDS011;37382;45.192;9.790;2022-11-15T12:07:25;50.22;;;29.05;;
51298;SDS011;37382;45.192;9.790;2022-11-15T12:13:01;50.40;;;29.93;;
51298;SDS011;37382;45.192;9.790;2022-11-15T12:15:39;48.65;;;28.73;;
51298;SDS011;37382;45.192;9.790;2022-11-15T12:18:13;42.35;;;26.35;;
51298;SDS011;37382;45.192;9.790;2022-11-15T12:20:56;42.63;;;26.13;;
51298;SDS011;37382;45.192;9.790;2022-11-15T12:24:05;34.08;;;22.58;;
51298;SDS011;37382;45.192;9.790;2022-11-15T12:26:41;42.83;;;23.85;;
51298;SDS011;37382;45.192;9.790;2022-11-15T12:29:44;33.35;;;22.20;;
51298;SDS011;37382;45.192;9.790;2022-11-15T12:32:29;37.78;;;24.27;;
51298;SDS011;37382;45.192;9.790;2022-11-15T12:35:00;35.70;;;22.83;;
51298;SDS011;37382;45.192;9.790;2022-11-15T12:45:32;35.60;;;23.02;;
51298;SDS011;37382;45.192;9.790;2022-11-15T13:06:40;25.77;;;19.40;;
51298;SDS011;37382;45.192;9.790;2022-11-15T13:11:57;30.83;;;21.67;;
51298;SDS011;37382;45.192;9.790;2022-11-15T13:14:40;34.72;;;23.17;;
51298;SDS011;37382;45.192;9.790;2022-11-15T13:19:47;35.40;;;24.98;;
51298;SDS011;37382;45.192;9.790;2022-11-15T13:22:37;40.42;;;25.25;;
51298;SDS011;37382;45.192;9.790;2022-11-15T13:27:51;40.30;;;28.95;;
51298;SDS011;37382;45.192;9.790;2022-11-15T13:30:22;37.65;;;25.75;;
51298;SDS011;37382;45.192;9.790;2022-11-15T13:32:54;41.75;;;27.58;;
51298;SDS011;37382;45.192;9.790;2022-11-15T13:35:28;48.83;;;28.50;;
51298;SDS011;37382;45.192;9.790;2022-11-15T13:37:58;40.72;;;27.60;;
51298;SDS011;37382;45.192;9.790;2022-11-15T13:40:34;42.83;;;29.60;;
51298;SDS011;37382;45.192;9.790;2022-11-15T13:49:05;39.28;;;25.73;;
51298;SDS011;37382;45.192;9.790;2022-11-15T13:51:40;39.90;;;25.50;;
51298;SDS011;37382;45.192;9.790;2022-11-15T13:56:47;32.17;;;23.50;;
51298;SDS011;37382;45.192;9.790;2022-11-15T13:59:29;34.47;;;23.73;;
51298;SDS011;37382;45.192;9.790;2022-11-15T14:02:01;34.55;;;23.08;;
51298;SDS011;37382;45.192;9.790;2022-11-15T14:05:04;34.90;;;23.27;;
51298;SDS011;37382;45.192;9.790;2022-11-15T14:07:56;33.85;;;22.58;;
51298;SDS011;37382;45.192;9.790;2022-11-15T14:10:29;32.63;;;22.45;;
51298;SDS011;37382;45.192;9.790;2022-11-15T14:12:57;30.35;;;22.00;;
51298;SDS011;37382;45.192;9.790;2022-11-15T14:17:53;31.77;;;22.55;;
51298;SDS011;37382;45.192;9.790;2022-11-15T14:20:29;32.35;;;23.10;;
51298;SDS011;37382;45.192;9.790;2022-11-15T14:22:58;34.63;;;23.30;;
51298;SDS011;37382;45.192;9.790;2022-11-15T14:25:29;31.05;;;22.52;;
51298;SDS011;37382;45.192;9.790;2022-11-15T14:28:08;32.70;;;22.33;;
51298;SDS011;37382;45.192;9.790;2022-11-15T14:30:41;33.50;;;22.73;;
51298;SDS011;37382;45.192;9.790;2022-11-15T14:33:53;29.65;;;21.92;;
51298;SDS011;37382;45.192;9.790;2022-11-15T14:36:11;32.25;;;21.02;;
51298;SDS011;37382;45.192;9.790;2022-11-15T14:38:39;28.52;;;20.17;;
51298;SDS011;37382;45.192;9.790;2022-11-15T14:41:10;35.45;;;21.50;;
51298;SDS011;37382;45.192;9.790;2022-11-15T14:43:49;29.55;;;21.85;;
51298;SDS011;37382;45.192;9.790;2022-11-15T14:46:17;37.05;;;23.42;;
51298;SDS011;37382;45.192;9.790;2022-11-15T14:48:45;34.55;;;24.77;;
51298;SDS011;37382;45.192;9.790;2022-11-15T14:51:15;36.17;;;24.58;;
51298;SDS011;37382;45.192;9.790;2022-11-15T14:53:45;36.13;;;24.10;;
51298;SDS011;37382;45.192;9.790;2022-11-15T14:56:13;41.22;;;25.48;;
51298;SDS011;37382;45.192;9.790;2022-11-15T14:58:41;30.55;;;21.92;;
51298;SDS011;37382;45.192;9.790;2022-11-15T15:01:11;32.95;;;21.83;;
51298;SDS011;37382;45.192;9.790;2022-11-15T15:03:41;37.47;;;23.20;;
51298;SDS011;37382;45.192;9.790;2022-11-15T15:06:10;30.70;;;21.73;;
51298;SDS011;37382;45.192;9.790;2022-11-15T15:08:44;36.17;;;23.13;;
51298;SDS011;37382;45.192;9.790;2022-11-15T15:11:33;32.90;;;22.73;;
51298;SDS011;37382;45.192;9.790;2022-11-15T15:14:00;29.52;;;22.00;;
51298;SDS011;37382;45.192;9.790;2022-11-15T15:16:28;39.33;;;25.15;;
51298;SDS011;37382;45.192;9.790;2022-11-15T15:18:55;33.30;;;23.70;;
51298;SDS011;37382;45.192;9.790;2022-11-15T15:21:23;33.55;;;23.40;;
51298;SDS011;37382;45.192;9.790;2022-11-15T15:23:55;32.38;;;22.80;;
51298;SDS011;37382;45.192;9.790;2022-11-15T15:26:23;36.63;;;24.88;;
51298;SDS011;37382;45.192;9.790;2022-11-15T15:28:51;33.35;;;23.65;;
51298;SDS011;37382;45.192;9.790;2022-11-15T15:31:19;39.65;;;25.33;;
51298;SDS011;37382;45.192;9.790;2022-11-15T15:33:46;39.47;;;26.48;;
51298;SDS011;37382;45.192;9.790;2022-11-15T15:36:14;43.40;;;27.23;;
51298;SDS011;37382;45.192;9.790;2022-11-15T15:38:44;39.80;;;25.00;;
51298;SDS011;37382;45.192;9.790;2022-11-15T15:41:14;34.45;;;22.83;;
51298;SDS011;37382;45.192;9.790;2022-11-15T15:43:43;40.97;;;26.40;;
51298;SDS011;37382;45.192;9.790;2022-11-15T15:46:12;44.30;;;28.08;;
51298;SDS011;37382;45.192;9.790;2022-11-15T15:48:43;62.80;;;34.72;;
51298;SDS011;37382;45.192;9.790;2022-11-15T15:51:11;46.53;;;29.85;;
51298;SDS011;37382;45.192;9.790;2022-11-15T15:53:47;41.80;;;29.00;;
51298;SDS011;37382;45.192;9.790;2022-11-15T15:56:15;47.00;;;31.58;;
51298;SDS011;37382;45.192;9.790;2022-11-15T15:58:42;50.00;;;32.20;;
51298;SDS011;37382;45.192;9.790;2022-11-15T16:01:10;42.25;;;28.65;;
51298;SDS011;37382;45.192;9.790;2022-11-15T16:03:38;37.88;;;26.20;;
51298;SDS011;37382;45.192;9.790;2022-11-15T16:06:22;37.03;;;27.30;;
51298;SDS011;37382;45.192;9.790;2022-11-15T16:09:00;42.72;;;27.10;;
51298;SDS011;37382;45.192;9.790;2022-11-15T16:11:41;37.10;;;26.05;;
51298;SDS011;37382;45.192;9.790;2022-11-15T16:14:10;39.38;;;24.08;;
51298;SDS011;37382;45.192;9.790;2022-11-15T16:16:38;35.97;;;24.48;;
51298;SDS011;37382;45.192;9.790;2022-11-15T16:19:06;34.63;;;24.63;;
51298;SDS011;37382;45.192;9.790;2022-11-15T16:21:35;38.80;;;25.20;;
51298;SDS011;37382;45.192;9.790;2022-11-15T16:24:02;32.40;;;24.25;;
51298;SDS011;37382;45.192;9.790;2022-11-15T16:26:35;38.10;;;27.40;;
51298;SDS011;37382;45.192;9.790;2022-11-15T16:29:03;44.50;;;29.10;;
51298;SDS011;37382;45.192;9.790;2022-11-15T16:31:31;49.80;;;31.70;;
51298;SDS011;37382;45.192;9.790;2022-11-15T16:33:58;40.20;;;26.58;;
51298;SDS011;37382;45.192;9.790;2022-11-15T16:36:26;36.63;;;25.13;;
51298;SDS011;37382;45.192;9.790;2022-11-15T16:38:57;42.00;;;26.23;;
51298;SDS011;37382;45.192;9.790;2022-11-15T16:41:25;36.63;;;26.35;;
51298;SDS011;37382;45.192;9.790;2022-11-15T16:43:53;37.00;;;27.02;;
51298;SDS011;37382;45.192;9.790;2022-11-15T16:46:21;39.63;;;27.95;;
51298;SDS011;37382;45.192;9.790;2022-11-15T16:48:50;38.38;;;25.67;;
51298;SDS011;37382;45.192;9.790;2022-11-15T16:51:18;34.17;;;25.85;;
51298;SDS011;37382;45.192;9.790;2022-11-15T16:53:46;38.20;;;27.23;;
51298;SDS011;37382;45.192;9.790;2022-11-15T16:58:52;42.22;;;28.40;;
51298;SDS011;37382;45.192;9.790;2022-11-15T17:01:27;46.85;;;30.70;;
51298;SDS011;37382;45.192;9.790;2022-11-15T17:03:57;41.92;;;25.95;;
51298;SDS011;37382;45.192;9.790;2022-11-15T17:06:25;37.83;;;27.05;;
51298;SDS011;37382;45.192;9.790;2022-11-15T17:08:53;42.42;;;27.73;;
51298;SDS011;37382;45.192;9.790;2022-11-15T17:11:21;33.58;;;26.25;;
51298;SDS011;37382;45.192;9.790;2022-11-15T17:13:49;38.03;;;26.75;;
51298;SDS011;37382;45.192;9.790;2022-11-15T17:16:17;44.13;;;30.45;;
51298;SDS011;37382;45.192;9.790;2022-11-15T17:18:44;40.90;;;28.00;;
51298;SDS011;37382;45.192;9.790;2022-11-15T17:21:20;37.00;;;25.33;;
51298;SDS011;37382;45.192;9.790;2022-11-15T17:23:48;35.83;;;24.08;;
51298;SDS011;37382;45.192;9.790;2022-11-15T17:26:16;34.17;;;23.48;;
51298;SDS011;37382;45.192;9.790;2022-11-15T17:28:57;36.95;;;24.88;;
51298;SDS011;37382;45.192;9.790;2022-11-15T17:31:26;38.22;;;26.00;;
51298;SDS011;37382;45.192;9.790;2022-11-15T17:33:56;37.17;;;26.48;;
51298;SDS011;37382;45.192;9.790;2022-11-15T17:36:23;35.17;;;23.92;;
51298;SDS011;37382;45.192;9.790;2022-11-15T17:38:50;36.80;;;25.88;;
51298;SDS011;37382;45.192;9.790;2022-11-15T17:41:25;43.08;;;25.35;;
51298;SDS011;37382;45.192;9.790;2022-11-15T17:43:54;39.60;;;24.98;;
51298;SDS011;37382;45.192;9.790;2022-11-15T17:46:25;43.88;;;26.23;;
51298;SDS011;37382;45.192;9.790;2022-11-15T17:48:54;37.42;;;24.90;;
51298;SDS011;37382;45.192;9.790;2022-11-15T17:51:23;35.25;;;25.38;;
51298;SDS011;37382;45.192;9.790;2022-11-15T17:53:51;36.70;;;26.42;;
51298;SDS011;37382;45.192;9.790;2022-11-15T17:56:19;40.15;;;26.70;;
51298;SDS011;37382;45.192;9.790;2022-11-15T17:58:52;41.40;;;26.50;;
51298;SDS011;37382;45.192;9.790;2022-11-15T18:03:51;41.17;;;26.92;;
51298;SDS011;37382;45.192;9.790;2022-11-15T18:06:21;43.42;;;28.58;;
51298;SDS011;37382;45.192;9.790;2022-11-15T18:08:50;44.22;;;29.98;;
51298;SDS011;37382;45.192;9.790;2022-11-15T18:11:19;38.40;;;25.55;;
51298;SDS011;37382;45.192;9.790;2022-11-15T18:13:50;34.35;;;25.27;;
51298;SDS011;37382;45.192;9.790;2022-11-15T18:16:23;36.92;;;25.75;;
51298;SDS011;37382;45.192;9.790;2022-11-15T18:18:52;39.60;;;27.30;;
51298;SDS011;37382;45.192;9.790;2022-11-15T18:21:23;44.22;;;27.65;;
51298;SDS011;37382;45.192;9.790;2022-11-15T18:23:53;40.00;;;26.33;;
51298;SDS011;37382;45.192;9.790;2022-11-15T18:26:26;37.13;;;27.77;;
51298;SDS011;37382;45.192;9.790;2022-11-15T18:28:57;38.35;;;24.30;;
51298;SDS011;37382;45.192;9.790;2022-11-15T18:31:30;37.78;;;24.05;;
51298;SDS011;37382;45.192;9.790;2022-11-15T18:33:59;31.48;;;23.13;;
51298;SDS011;37382;45.192;9.790;2022-11-15T18:36:28;35.50;;;23.27;;
51298;SDS011;37382;45.192;9.790;2022-11-15T18:38:58;38.90;;;24.63;;
51298;SDS011;37382;45.192;9.790;2022-11-15T18:41:28;36.13;;;24.95;;
51298;SDS011;37382;45.192;9.790;2022-11-15T18:43:57;42.78;;;27.65;;
51298;SDS011;37382;45.192;9.790;2022-11-15T18:48:57;39.85;;;26.58;;
51298;SDS011;37382;45.192;9.790;2022-11-15T18:51:27;38.15;;;26.33;;
51298;SDS011;37382;45.192;9.790;2022-11-15T18:53:58;26.80;;;20.85;;
51298;SDS011;37382;45.192;9.790;2022-11-15T18:56:27;34.08;;;22.08;;
51298;SDS011;37382;45.192;9.790;2022-11-15T18:58:56;32.92;;;20.27;;
51298;SDS011;37382;45.192;9.790;2022-11-15T19:01:31;27.00;;;19.67;;
51298;SDS011;37382;45.192;9.790;2022-11-15T19:04:08;27.88;;;19.33;;
51298;SDS011;37382;45.192;9.790;2022-11-15T19:06:41;26.80;;;18.25;;
51298;SDS011;37382;45.192;9.790;2022-11-15T19:09:10;25.08;;;18.55;;
51298;SDS011;37382;45.192;9.790;2022-11-15T19:11:41;27.65;;;19.80;;
51298;SDS011;37382;45.192;9.790;2022-11-15T19:14:11;28.13;;;18.67;;
51298;SDS011;37382;45.192;9.790;2022-11-15T19:16:40;27.67;;;19.05;;
51298;SDS011;37382;45.192;9.790;2022-11-15T19:19:12;29.23;;;19.23;;
51298;SDS011;37382;45.192;9.790;2022-11-15T19:21:41;25.05;;;18.08;;
51298;SDS011;37382;45.192;9.790;2022-11-15T19:24:08;24.75;;;18.52;;
51298;SDS011;37382;45.192;9.790;2022-11-15T19:26:39;29.98;;;20.60;;
51298;SDS011;37382;45.192;9.790;2022-11-15T19:29:07;28.08;;;21.15;;
51298;SDS011;37382;45.192;9.790;2022-11-15T19:31:37;27.02;;;18.58;;
51298;SDS011;37382;45.192;9.790;2022-11-15T19:34:05;24.08;;;17.42;;
51298;SDS011;37382;45.192;9.790;2022-11-15T19:36:34;26.63;;;17.98;;
51298;SDS011;37382;45.192;9.790;2022-11-15T19:39:07;26.48;;;18.17;;
51298;SDS011;37382;45.192;9.790;2022-11-15T19:41:39;24.05;;;17.52;;
51298;SDS011;37382;45.192;9.790;2022-11-15T19:44:09;24.95;;;17.30;;
51298;SDS011;37382;45.192;9.790;2022-11-15T19:46:37;27.10;;;17.73;;
51298;SDS011;37382;45.192;9.790;2022-11-15T19:49:06;28.45;;;18.80;;
51298;SDS011;37382;45.192;9.790;2022-11-15T19:51:37;30.27;;;20.77;;
51298;SDS011;37382;45.192;9.790;2022-11-15T19:54:07;27.02;;;19.83;;
51298;SDS011;37382;45.192;9.790;2022-11-15T19:56:36;28.67;;;19.65;;
51298;SDS011;37382;45.192;9.790;2022-11-15T19:59:04;32.10;;;21.95;;
51298;SDS011;37382;45.192;9.790;2022-11-15T20:01:32;28.38;;;20.27;;
51298;SDS011;37382;45.192;9.790;2022-11-15T20:04:03;29.98;;;22.15;;
51298;SDS011;37382;45.192;9.790;2022-11-15T20:06:36;32.22;;;20.50;;
51298;SDS011;37382;45.192;9.790;2022-11-15T20:09:06;29.20;;;20.83;;
51298;SDS011;37382;45.192;9.790;2022-11-15T20:11:34;27.80;;;18.92;;
51298;SDS011;37382;45.192;9.790;2022-11-15T20:14:04;26.70;;;18.77;;
51298;SDS011;37382;45.192;9.790;2022-11-15T20:16:37;23.90;;;18.10;;
51298;SDS011;37382;45.192;9.790;2022-11-15T20:19:05;27.17;;;19.20;;
51298;SDS011;37382;45.192;9.790;2022-11-15T20:21:34;25.90;;;18.63;;
51298;SDS011;37382;45.192;9.790;2022-11-15T20:24:02;27.20;;;20.00;;
51298;SDS011;37382;45.192;9.790;2022-11-15T20:26:31;27.00;;;19.88;;
51298;SDS011;37382;45.192;9.790;2022-11-15T20:28:59;26.33;;;19.10;;
51298;SDS011;37382;45.192;9.790;2022-11-15T20:31:28;30.48;;;20.02;;
51298;SDS011;37382;45.192;9.790;2022-11-15T20:33:55;32.80;;;22.25;;
51298;SDS011;37382;45.192;9.790;2022-11-15T20:36:24;33.35;;;23.35;;
51298;SDS011;37382;45.192;9.790;2022-11-15T20:38:54;32.45;;;21.63;;
51298;SDS011;37382;45.192;9.790;2022-11-15T20:41:23;26.60;;;19.25;;
51298;SDS011;37382;45.192;9.790;2022-11-15T20:43:50;28.40;;;20.90;;
51298;SDS011;37382;45.192;9.790;2022-11-15T20:46:18;30.45;;;19.90;;
51298;SDS011;37382;45.192;9.790;2022-11-15T20:48:45;43.30;;;27.27;;
51298;SDS011;37382;45.192;9.790;2022-11-15T20:51:15;32.72;;;22.25;;
51298;SDS011;37382;45.192;9.790;2022-11-15T20:53:44;28.63;;;19.73;;
51298;SDS011;37382;45.192;9.790;2022-11-15T20:56:17;35.05;;;22.42;;
51298;SDS011;37382;45.192;9.790;2022-11-15T20:58:46;30.88;;;21.83;;
51298;SDS011;37382;45.192;9.790;2022-11-15T21:01:14;28.23;;;21.58;;
51298;SDS011;37382;45.192;9.790;2022-11-15T21:03:44;27.02;;;20.77;;
51298;SDS011;37382;45.192;9.790;2022-11-15T21:06:12;30.25;;;20.23;;
51298;SDS011;37382;45.192;9.790;2022-11-15T21:08:39;25.88;;;20.17;;
51298;SDS011;37382;45.192;9.790;2022-11-15T21:11:25;27.30;;;20.25;;
51298;SDS011;37382;45.192;9.790;2022-11-15T21:14:11;27.13;;;20.35;;
51298;SDS011;37382;45.192;9.790;2022-11-15T21:16:40;28.52;;;20.55;;
51298;SDS011;37382;45.192;9.790;2022-11-15T21:19:07;26.60;;;19.67;;
51298;SDS011;37382;45.192;9.790;2022-11-15T21:21:35;28.92;;;20.17;;
51298;SDS011;37382;45.192;9.790;2022-11-15T21:24:04;26.75;;;19.42;;
51298;SDS011;37382;45.192;9.790;2022-11-15T21:26:33;30.67;;;20.98;;
51298;SDS011;37382;45.192;9.790;2022-11-15T21:29:02;27.30;;;20.83;;
51298;SDS011;37382;45.192;9.790;2022-11-15T21:31:30;29.17;;;21.27;;
51298;SDS011;37382;45.192;9.790;2022-11-15T21:34:01;29.83;;;21.52;;
51298;SDS011;37382;45.192;9.790;2022-11-15T21:36:29;31.02;;;21.83;;
51298;SDS011;37382;45.192;9.790;2022-11-15T21:38:57;28.42;;;20.67;;
51298;SDS011;37382;45.192;9.790;2022-11-15T21:41:24;27.88;;;21.42;;
51298;SDS011;37382;45.192;9.790;2022-11-15T21:43:55;30.13;;;20.80;;
51298;SDS011;37382;45.192;9.790;2022-11-15T21:46:27;28.27;;;20.45;;
51298;SDS011;37382;45.192;9.790;2022-11-15T21:48:56;26.73;;;20.40;;
51298;SDS011;37382;45.192;9.790;2022-11-15T21:51:24;32.72;;;20.48;;